createdAt,value
2019-04-14T00:01:54.425Z,31.97
2019-04-14T00:04:24.811Z,32.77
2019-04-14T00:06:54.662Z,32.33
2019-04-14T00:09:23.688Z,30.60
2019-04-14T00:11:53.336Z,32.43
2019-04-14T00:14:22.792Z,31.17
2019-04-14T00:16:51.287Z,31.43
2019-04-14T00:19:19.695Z,32.33
2019-04-14T00:21:48.148Z,32.00
2019-04-14T00:24:16.536Z,32.50
2019-04-14T00:26:45.271Z,34.03
2019-04-14T00:29:15.169Z,32.87
2019-04-14T00:31:43.616Z,34.10
2019-04-14T00:34:13.849Z,33.00
2019-04-14T00:36:43.924Z,31.53
2019-04-14T00:39:20.463Z,33.43
2019-04-14T00:41:54.950Z,31.93
2019-04-14T00:44:41.006Z,34.13
2019-04-14T00:47:22.978Z,34.10
2019-04-14T00:49:51.370Z,34.67
2019-04-14T00:52:21.085Z,32.73
2019-04-14T00:54:50.109Z,34.33
2019-04-14T00:57:18.575Z,32.43
2019-04-14T00:59:47.016Z,32.40
2019-04-14T01:02:16.480Z,31.83
2019-04-14T01:04:45.098Z,31.20
2019-04-14T01:07:13.675Z,31.20
2019-04-14T01:09:42.115Z,31.20
2019-04-14T01:12:10.583Z,31.30
2019-04-14T01:14:38.987Z,31.37
2019-04-14T01:17:07.490Z,32.90
2019-04-14T01:19:35.894Z,31.30
2019-04-14T01:22:05.341Z,31.80
2019-04-14T01:24:33.838Z,33.20
2019-04-14T01:27:02.248Z,31.43
2019-04-14T01:29:31.868Z,31.80
2019-04-14T01:32:00.418Z,32.30
2019-04-14T01:34:28.843Z,32.00
2019-04-14T01:36:58.448Z,35.37
2019-04-14T01:39:26.963Z,32.63
2019-04-14T01:41:56.411Z,31.90
2019-04-14T01:44:26.308Z,31.77
2019-04-14T01:46:54.827Z,32.30
2019-04-14T01:49:23.226Z,32.53
2019-04-14T01:51:55.674Z,32.47
2019-04-14T01:54:41.026Z,31.53
2019-04-14T01:57:28.495Z,33.30
2019-04-14T01:59:58.884Z,33.33
2019-04-14T02:02:29.140Z,34.63
2019-04-14T02:04:57.604Z,34.67
2019-04-14T02:07:26.066Z,34.47
2019-04-14T02:09:55.367Z,33.37
2019-04-14T02:12:23.856Z,34.10
2019-04-14T02:14:52.279Z,33.30
2019-04-14T02:17:21.924Z,31.17
2019-04-14T02:19:50.565Z,33.00
2019-04-14T02:22:20.198Z,32.73
2019-04-14T02:24:48.747Z,32.10
2019-04-14T02:27:17.151Z,34.33
2019-04-14T02:29:45.570Z,34.20
2019-04-14T02:32:40.938Z,33.53
2019-04-14T02:35:11.168Z,32.73
2019-04-14T02:37:45.513Z,32.13
2019-04-14T02:40:08.781Z,32.97
2019-04-14T02:42:39.536Z,33.93
2019-04-14T02:45:12.699Z,32.47
2019-04-14T02:47:53.743Z,31.47
2019-04-14T02:52:46.473Z,32.60
2019-04-14T02:55:13.913Z,30.20
2019-04-14T02:57:39.990Z,31.07
2019-04-14T03:00:19.664Z,30.30
2019-04-14T03:05:10.282Z,31.70
2019-04-14T03:07:45.819Z,31.73
2019-04-14T03:10:12.670Z,31.53
2019-04-14T03:12:51.038Z,31.33
2019-04-14T03:15:14.600Z,31.47
2019-04-14T03:18:15.999Z,32.00
2019-04-14T03:20:32.376Z,31.07
2019-04-14T03:23:19.079Z,30.23
2019-04-14T03:25:46.331Z,32.60
2019-04-14T03:31:25.993Z,30.63
2019-04-14T03:38:40.203Z,32.00
2019-04-14T03:41:08.724Z,30.37
2019-04-14T03:46:09.690Z,31.57
2019-04-14T03:51:08.566Z,31.47
2019-04-14T03:53:47.239Z,30.70
2019-04-14T03:55:55.622Z,30.83
2019-04-14T03:58:20.489Z,29.93
2019-04-14T04:00:49.246Z,30.77
2019-04-14T04:03:17.690Z,31.07
2019-04-14T04:05:46.116Z,30.30
2019-04-14T04:27:13.537Z,29.90
2019-04-14T07:33:35.784Z,18.80
2019-04-14T07:36:22.023Z,20.30
2019-04-14T07:39:08.551Z,18.83
2019-04-14T07:41:38.591Z,18.73
2019-04-14T07:44:14.830Z,19.03
2019-04-14T07:46:43.686Z,17.83
2019-04-14T07:49:32.886Z,18.70
2019-04-14T07:52:19.431Z,18.17
2019-04-14T07:55:01.484Z,17.17
2019-04-14T07:57:49.946Z,17.93
2019-04-14T08:00:38.531Z,18.67
2019-04-14T08:03:08.576Z,17.13
2019-04-14T08:05:39.195Z,17.80
2019-04-14T08:08:07.640Z,17.97
2019-04-14T08:10:36.115Z,16.83
2019-04-14T08:13:04.591Z,16.93
2019-04-14T08:15:33.012Z,16.60
2019-04-14T08:18:01.417Z,16.53
2019-04-14T08:20:29.819Z,16.00
2019-04-14T08:22:58.231Z,16.23
2019-04-14T08:25:26.641Z,15.97
2019-04-14T08:27:55.049Z,14.60
2019-04-14T08:30:23.469Z,15.13
2019-04-14T08:32:51.868Z,15.10
2019-04-14T08:35:20.276Z,14.07
2019-04-14T08:38:03.657Z,13.91
2019-04-14T08:40:31.730Z,13.83
2019-04-14T08:43:01.774Z,13.93
2019-04-14T08:45:31.846Z,13.83
2019-04-14T08:48:07.815Z,13.17
2019-04-14T08:50:40.955Z,13.67
2019-04-14T08:53:11.009Z,13.73
2019-04-14T08:55:41.053Z,13.70
2019-04-14T08:58:20.116Z,13.03
2019-04-14T09:01:06.642Z,13.00
2019-04-14T09:03:39.643Z,12.87
2019-04-14T09:06:12.495Z,11.70
2019-04-14T09:08:48.270Z,12.00
2019-04-14T09:11:21.115Z,12.67
2019-04-14T09:13:49.539Z,12.73
2019-04-14T09:16:17.955Z,11.93
2019-04-14T09:18:46.375Z,12.60
2019-04-14T09:21:14.808Z,12.37
2019-04-14T09:23:43.235Z,11.93
2019-04-14T09:26:11.655Z,12.27
2019-04-14T09:28:40.073Z,12.47
2019-04-14T09:31:08.515Z,13.30
2019-04-14T09:33:37.218Z,12.00
2019-04-14T09:36:05.680Z,13.10
2019-04-14T09:38:34.127Z,12.17
2019-04-14T09:41:02.607Z,12.00
2019-04-14T09:43:31.013Z,12.50
2019-04-14T09:45:59.431Z,12.13
2019-04-14T09:48:27.834Z,10.97
2019-04-14T09:51:04.775Z,10.68
2019-04-14T09:53:25.964Z,11.43
2019-04-14T09:55:54.376Z,11.20
2019-04-14T10:01:51.734Z,11.67
2019-04-14T10:04:20.151Z,11.77
2019-04-14T10:06:48.628Z,11.33
2019-04-14T10:09:17.203Z,10.80
2019-04-14T10:11:48.880Z,11.03
2019-04-14T10:14:15.826Z,11.60
2019-04-14T10:16:44.519Z,11.07
2019-04-14T10:19:12.939Z,11.83
2019-04-14T10:21:41.350Z,11.17
2019-04-14T10:24:11.793Z,10.73
2019-04-14T10:26:40.269Z,11.80
2019-04-14T10:29:08.679Z,11.47
2019-04-14T10:31:37.092Z,11.50
2019-04-14T10:34:05.501Z,10.63
2019-04-14T10:36:33.574Z,10.93
2019-04-14T10:39:01.995Z,11.13
2019-04-14T10:41:30.488Z,10.63
2019-04-14T10:43:58.906Z,11.60
2019-04-14T10:46:27.631Z,10.50
2019-04-14T10:48:56.038Z,11.23
2019-04-14T10:51:30.324Z,11.23
2019-04-14T10:53:54.619Z,11.57
2019-04-14T10:56:23.036Z,11.30
2019-04-14T10:58:51.442Z,11.93
2019-04-14T11:01:19.904Z,12.10
2019-04-14T11:03:48.311Z,11.07
2019-04-14T11:06:21.310Z,11.87
2019-04-14T11:08:49.791Z,11.17
2019-04-14T11:11:18.239Z,12.40
2019-04-14T11:13:46.730Z,11.67
2019-04-14T11:16:15.191Z,12.63
2019-04-14T11:18:43.667Z,12.23
2019-04-14T11:21:12.127Z,12.33
2019-04-14T11:23:40.591Z,12.53
2019-04-14T11:26:09.001Z,12.70
2019-04-14T11:28:37.412Z,13.20
2019-04-14T11:31:06.138Z,12.97
2019-04-14T11:33:36.196Z,12.40
2019-04-14T11:36:23.133Z,12.53
2019-04-14T11:38:53.414Z,13.57
2019-04-14T11:41:23.470Z,11.77
2019-04-14T11:43:51.878Z,12.67
2019-04-14T11:46:20.287Z,13.17
2019-04-14T11:48:48.774Z,12.47
2019-04-14T11:51:17.406Z,13.30
2019-04-14T11:53:45.833Z,12.33
2019-04-14T11:56:14.378Z,13.67
2019-04-14T11:58:42.792Z,12.30
2019-04-14T12:01:12.859Z,12.80
2019-04-14T12:03:58.911Z,13.43
2019-04-14T12:06:43.766Z,12.73
2019-04-14T12:09:16.246Z,12.83
2019-04-14T12:11:44.747Z,13.00
2019-04-14T12:14:13.240Z,12.57
2019-04-14T12:16:41.782Z,12.57
2019-04-14T12:19:10.191Z,12.23
2019-04-14T12:21:38.607Z,13.30
2019-04-14T12:24:07.194Z,12.67
2019-04-14T12:26:35.595Z,13.30
2019-04-14T12:29:05.234Z,12.37
2019-04-14T12:31:35.262Z,12.80
2019-04-14T12:34:03.831Z,12.33
2019-04-14T12:36:40.466Z,12.57
2019-04-14T12:39:23.198Z,13.17
2019-04-14T12:42:10.299Z,11.53
2019-04-14T12:44:49.459Z,11.40
2019-04-14T12:47:22.079Z,11.83
2019-04-14T12:49:52.131Z,10.87
2019-04-14T12:52:22.239Z,12.07
2019-04-14T12:54:50.671Z,11.80
2019-04-14T12:57:20.730Z,12.20
2019-04-14T12:59:49.140Z,12.77
2019-04-14T13:02:19.186Z,12.03
2019-04-14T13:04:47.610Z,12.17
2019-04-14T13:07:16.263Z,12.43
2019-04-14T13:09:44.759Z,11.93
2019-04-14T13:12:13.234Z,12.50
2019-04-14T13:14:41.642Z,11.57
2019-04-14T13:17:10.222Z,12.67
2019-04-14T13:19:38.650Z,12.83
2019-04-14T13:22:07.138Z,11.77
2019-04-14T13:24:35.547Z,12.10
2019-04-14T13:27:03.967Z,12.17
2019-04-14T13:29:32.383Z,12.00
2019-04-14T13:32:00.794Z,12.17
2019-04-14T13:34:29.302Z,12.20
2019-04-14T13:36:57.707Z,12.93
2019-04-14T13:39:26.190Z,13.73
2019-04-14T13:41:54.950Z,12.67
2019-04-14T13:44:23.358Z,12.70
2019-04-14T13:46:51.771Z,12.97
2019-04-14T13:49:20.194Z,13.00
2019-04-14T13:51:48.607Z,12.73
2019-04-14T13:54:17.059Z,12.97
2019-04-14T13:56:45.463Z,13.30
2019-04-14T13:59:14.572Z,12.67
2019-04-14T14:01:42.978Z,13.23
2019-04-14T14:04:11.390Z,13.27
2019-04-14T14:06:39.822Z,12.37
2019-04-14T14:09:10.910Z,12.43
2019-04-14T14:11:56.138Z,12.77
2019-04-14T14:14:26.428Z,12.90
2019-04-14T14:17:11.441Z,12.90
2019-04-14T14:19:44.451Z,13.43
2019-04-14T14:22:14.494Z,12.43
2019-04-14T14:24:44.571Z,12.50
2019-04-14T14:27:12.983Z,12.90
2019-04-14T14:29:41.448Z,13.30
2019-04-14T14:32:17.275Z,12.70
2019-04-14T14:34:45.684Z,13.00
2019-04-14T14:37:14.090Z,13.17
2019-04-14T14:39:42.572Z,12.87
2019-04-14T14:42:10.990Z,12.30
2019-04-14T14:44:53.246Z,13.10
2019-04-14T14:47:23.297Z,13.13
2019-04-14T14:50:08.215Z,12.40
2019-04-14T14:52:37.981Z,13.50
2019-04-14T14:55:07.218Z,13.30
2019-04-14T14:57:35.685Z,13.63
2019-04-14T15:00:08.569Z,13.40
2019-04-14T15:02:36.985Z,12.67
2019-04-14T15:05:07.298Z,12.53
2019-04-14T15:07:35.698Z,12.47
2019-04-14T15:10:06.147Z,12.07
2019-04-14T15:12:34.558Z,12.00
2019-04-14T15:15:03.672Z,11.97
2019-04-14T15:17:32.076Z,11.80
2019-04-14T15:20:00.563Z,11.70
2019-04-14T15:22:28.970Z,11.50
2019-04-14T15:24:57.382Z,11.60
2019-04-14T15:27:26.044Z,11.83
2019-04-14T15:29:54.522Z,11.03
2019-04-14T15:32:22.981Z,11.57
2019-04-14T15:34:51.393Z,11.40
2019-04-14T15:37:19.911Z,11.53
2019-04-14T15:39:48.323Z,11.83
2019-04-14T15:42:16.769Z,11.70
2019-04-14T15:44:45.210Z,11.30
2019-04-14T15:47:13.616Z,11.10
2019-04-14T15:49:42.025Z,10.80
2019-04-14T15:52:10.451Z,11.10
2019-04-14T15:54:38.859Z,14.40
2019-04-14T15:57:27.020Z,11.63
2019-04-14T15:59:57.063Z,10.97
2019-04-14T16:02:33.434Z,11.60
2019-04-14T16:05:09.234Z,10.97
2019-04-14T16:07:45.280Z,11.20
2019-04-14T16:10:24.141Z,10.83
2019-04-14T16:13:00.199Z,10.10
2019-04-14T16:15:42.183Z,10.73
2019-04-14T16:18:27.531Z,10.20
2019-04-14T16:20:55.935Z,10.87
2019-04-14T16:23:24.386Z,9.90
2019-04-14T16:26:09.538Z,10.47
2019-04-14T16:28:42.539Z,10.80
2019-04-14T16:31:15.007Z,10.37
2019-04-14T16:34:01.291Z,10.10
2019-04-14T16:36:30.191Z,10.57
2019-04-14T16:38:58.686Z,10.37
2019-04-14T16:41:27.086Z,10.50
2019-04-14T16:43:55.502Z,10.47
2019-04-14T16:46:23.906Z,11.13
2019-04-14T16:48:52.315Z,9.90
2019-04-14T16:51:22.373Z,10.10
2019-04-14T16:54:02.477Z,11.10
2019-04-14T16:56:25.252Z,10.37
2019-04-14T16:58:57.859Z,10.83
2019-04-14T17:01:27.898Z,10.53
2019-04-14T17:03:56.339Z,10.63
2019-04-14T17:06:24.754Z,10.90
2019-04-14T17:08:53.206Z,10.87
2019-04-14T17:11:21.694Z,10.43
2019-04-14T17:13:51.750Z,10.60
2019-04-14T17:16:21.792Z,10.30
2019-04-14T17:18:54.478Z,10.40
2019-04-14T17:21:30.484Z,10.20
2019-04-14T17:24:15.589Z,10.73
2019-04-14T17:26:34.835Z,10.57
2019-04-14T17:29:27.463Z,10.47
2019-04-14T17:32:14.227Z,10.00
2019-04-14T17:34:46.980Z,10.10
2019-04-14T17:37:17.014Z,10.57
2019-04-14T17:39:47.059Z,10.30
2019-04-14T17:42:25.966Z,10.60
2019-04-14T17:44:56.008Z,10.80
2019-04-14T17:47:28.752Z,10.17
2019-04-14T17:49:58.811Z,10.17
2019-04-14T17:52:28.848Z,9.73
2019-04-14T17:55:07.730Z,9.93
2019-04-14T17:57:37.770Z,9.93
2019-04-14T18:00:11.767Z,10.00
2019-04-14T18:02:41.826Z,9.33
2019-04-14T18:05:11.931Z,9.67
2019-04-14T18:07:41.974Z,8.73
2019-04-14T18:10:12.261Z,9.03
2019-04-14T18:12:47.983Z,8.60
2019-04-14T18:15:33.607Z,8.37
2019-04-14T18:18:20.023Z,7.97
2019-04-14T18:20:50.338Z,7.13
2019-04-14T18:23:18.974Z,7.80
2019-04-14T18:25:47.383Z,7.10
2019-04-14T18:28:17.414Z,7.10
2019-04-14T18:31:03.686Z,7.03
2019-04-14T18:33:49.931Z,7.40
2019-04-14T18:36:35.026Z,7.53
2019-04-14T18:39:21.214Z,7.53
2019-04-14T18:42:07.158Z,6.83
2019-04-14T18:44:53.491Z,6.93
2019-04-14T18:47:23.530Z,7.20
2019-04-14T18:49:53.567Z,7.20
2019-04-14T18:52:39.904Z,7.40
2019-04-14T18:55:15.698Z,7.33
2019-04-14T18:57:51.747Z,7.33
2019-04-14T19:00:21.784Z,7.70
2019-04-14T19:02:50.190Z,7.70
2019-04-14T19:05:18.620Z,7.57
2019-04-14T19:07:47.011Z,8.10
2019-04-14T19:10:15.574Z,7.60
2019-04-14T19:12:45.646Z,7.73
2019-04-14T19:15:22.479Z,8.27
2019-04-14T19:17:58.356Z,8.43
2019-04-14T19:20:26.746Z,8.53
2019-04-14T19:22:55.142Z,8.20
2019-04-14T19:25:23.549Z,8.87
2019-04-14T19:27:51.947Z,7.97
2019-04-14T19:30:20.595Z,8.27
2019-04-14T19:32:48.994Z,8.87
2019-04-14T19:35:17.439Z,9.13
2019-04-14T19:37:45.855Z,9.20
2019-04-14T19:40:14.403Z,9.00
2019-04-14T19:42:43.040Z,9.40
2019-04-14T19:45:11.551Z,10.53
2019-04-14T19:47:39.954Z,9.70
2019-04-14T19:50:08.684Z,9.77
2019-04-14T19:52:37.082Z,9.70
2019-04-14T19:55:19.497Z,10.07
2019-04-14T19:57:37.138Z,9.27
2019-04-14T20:00:07.301Z,9.20
2019-04-14T20:02:35.695Z,9.00
2019-04-14T20:05:05.926Z,8.67
2019-04-14T20:07:34.327Z,8.17
2019-04-14T20:10:02.802Z,8.50
2019-04-14T20:12:31.439Z,8.33
2019-04-14T20:14:59.834Z,8.23
2019-04-14T20:17:29.888Z,8.50
2019-04-14T20:20:16.034Z,8.87
2019-04-14T20:22:46.094Z,8.27
2019-04-14T20:25:33.587Z,7.67
2019-04-14T20:27:59.643Z,7.80
2019-04-14T20:30:35.407Z,7.43
2019-04-14T20:33:03.883Z,7.63
2019-04-14T20:35:32.615Z,7.40
2019-04-14T20:38:01.014Z,7.13
2019-04-14T20:40:29.421Z,7.27
2019-04-14T20:42:58.127Z,7.87
2019-04-14T20:45:26.527Z,7.17
2019-04-14T20:47:55.002Z,7.23
2019-04-14T20:50:23.403Z,6.60
2019-04-14T20:52:51.803Z,6.50
2019-04-14T20:55:20.312Z,6.73
2019-04-14T20:57:48.714Z,7.17
2019-04-14T21:00:20.562Z,6.80
2019-04-14T21:03:01.195Z,6.67
2019-04-14T21:05:37.150Z,7.23
2019-04-14T21:08:10.379Z,6.70
2019-04-14T21:10:40.410Z,7.27
2019-04-14T21:13:18.938Z,6.90
2019-04-14T21:15:54.743Z,6.63
2019-04-14T21:18:24.816Z,6.80
2019-04-14T21:20:57.883Z,6.60
2019-04-14T21:23:27.915Z,6.57
2019-04-14T21:26:03.558Z,6.80
2019-04-14T21:28:36.290Z,6.30
2019-04-14T21:31:06.327Z,7.30
2019-04-14T21:33:45.409Z,6.40
2019-04-14T21:36:31.723Z,7.27
2019-04-14T21:39:01.734Z,7.10
2019-04-14T21:41:31.774Z,7.43
2019-04-14T21:44:00.166Z,7.63
2019-04-14T21:46:28.735Z,7.40
2019-04-14T21:48:57.127Z,8.13
2019-04-14T21:51:27.238Z,6.97
2019-04-14T21:53:55.656Z,7.63
2019-04-14T21:56:25.698Z,7.57
2019-04-14T21:58:55.738Z,7.63
2019-04-14T22:01:45.290Z,8.00
2019-04-14T22:04:30.558Z,6.87
2019-04-14T22:07:01.448Z,7.07
2019-04-14T22:09:34.296Z,8.43
2019-04-14T22:12:04.338Z,7.93
2019-04-14T22:14:32.764Z,8.17
2019-04-14T22:17:01.430Z,8.27
2019-04-14T22:19:30.394Z,8.27
2019-04-14T22:21:58.794Z,8.07
2019-04-14T22:24:27.215Z,8.30
2019-04-14T22:26:55.611Z,8.37
2019-04-14T22:29:24.014Z,8.37
2019-04-14T22:31:52.518Z,8.63
2019-04-14T22:34:21.003Z,8.60
2019-04-14T22:36:49.402Z,9.33
2019-04-14T22:39:18.195Z,9.37
2019-04-14T22:41:46.694Z,9.67
2019-04-14T22:44:15.097Z,9.63
2019-04-14T22:46:43.499Z,8.87
2019-04-14T22:49:11.900Z,9.77
2019-04-14T22:51:40.311Z,9.57
2019-04-14T22:54:08.997Z,9.87
2019-04-14T22:56:39.618Z,10.37
2019-04-14T22:59:07.543Z,10.87
2019-04-14T23:01:37.602Z,10.67
2019-04-14T23:04:13.682Z,10.30
2019-04-14T23:06:43.727Z,10.43
2019-04-14T23:09:30.363Z,10.73
2019-04-14T23:12:09.301Z,10.87
2019-04-14T23:14:45.070Z,10.47
2019-04-14T23:17:15.112Z,10.87
2019-04-14T23:19:51.127Z,11.43
2019-04-14T23:22:24.114Z,10.97
2019-04-14T23:24:52.555Z,11.33
2019-04-14T23:27:21.051Z,11.03
2019-04-14T23:29:49.460Z,10.67
2019-04-14T23:32:17.915Z,11.37
2019-04-14T23:34:46.330Z,12.17
2019-04-14T23:37:14.719Z,11.80
2019-04-14T23:39:43.123Z,11.90
2019-04-14T23:42:11.537Z,12.83
2019-04-14T23:44:39.946Z,12.23
2019-04-14T23:47:08.352Z,11.90
2019-04-14T23:49:36.815Z,11.83
2019-04-14T23:52:05.237Z,12.70
2019-04-14T23:54:33.659Z,11.63
2019-04-14T23:57:06.081Z,11.90
2019-04-14T23:59:32.279Z,12.43
